Hit Tracker is now ESPN Home Run Tracker! Hit Tracker founder Greg Rybarczyk is now collaborating with the ESPN Stats & Information Group to continue tracking all MLB home runs, and helping baseball fans know "How Far It Really Went!™" Please credit any information on this site to ESPN Stats & Information Group. For more information and analysis on home runs, please contact founder Greg Rybarczyk. E-Mail ESPN Home Run Tracker
Main Page | Ballparks | Park Overlays | Glossary | Highlight Homers | Feedback | Bio | 3 Types of HR's | AAA Home Run Derby Last Updated: May 23, 2015, 11:09 pm PST
Welcome to the ESPN Home Run Tracker! Check out the ESPN MLB Scoreboard throughout the 2014 season! Contact us at grybar@hittrackeronline.com.
Season:
Ballpark detail for Miller Park
Ballpark # of Home Runs HR per game Avg.
True
Distance
Avg.
Speed
Off
Bat
Avg.
Std.
Dist.
Miller Park 64 2.78 404.8 104 403.9

Scatter Plot of Home Runs Miller Park
 Overlay Ballpark:
Without range rings   With range rings

2015 Season Home Runs for Miller Park
Click headers to sort
Date Video Path Hitter Hitter
Team
Pitcher Pitcher
Team
INN Ballpark Type/
Luck
True
Dist.
Speed
Off
Bat
Elev.
Angle
Horiz.
Angle
Apex Impact Due To: Std.
Dist.
#
Parks
Wind Temp. Alt. ^
05/13/15 Video View Gomez, Carlos MIL Robertson, David CHW 9 Miller Park PL 403 105.4 32.8 107.8 126 -2 -7 3 409 30
05/08/15 Video View Rizzo, Anthony CHC Nelson, Jimmy MIL 4 Miller Park ND 408 105.2 33.4 70.1 124 0 2 3 403 30
05/09/15 Video View Bryant, Kris CHC Lohse, Kyle MIL 3 Miller Park JE 389 100.0 35.2 97.5 133 0 0 3 387 5
05/11/15 Video View Davis, Khris MIL Duke, Zach CHW 8 Miller Park ND 439 110.8 31.1 108.7 124 0 0 3 437 30
04/26/15 Video View Lind, Adam MIL Lynn, Lance STL 3 Miller Park PL 408 103.1 33.7 80.8 132 0 0 3 406 27
05/06/15 Video View Lind, Adam MIL Wieland, Joe LAD 1 Miller Park PL 361 101.2 38.5 68.0 141 0 0 3 358 25
04/24/15 Video View Peralta, Jhonny STL Garza, Matt MIL 6 Miller Park PL 381 102.3 36.0 110.0 133 0 -1 3 379 30
05/10/15 Video View Herrera, Elian MIL Rosscup, Zac CHC 7 Miller Park JE 380 98.2 32.2 105.7 104 0 -1 2 379 24
05/11/15 Video View Herrera, Elian MIL Duke, Zach CHW 8 Miller Park PL 400 103.5 30.6 111.6 101 0 0 2 399 30
04/26/15 Video View Reynolds, Mark STL Fiers, Mike MIL 5 Miller Park ND 438 111.5 25.9 108.2 88 0 0 2 437 30
05/04/15 Video View Gomez, Hector MIL Kershaw, Clayton LAD 8 Miller Park JE 383 98.3 33.9 101.6 118 0 0 2 380 12
05/06/15 Video View Pederson, Joc LAD Peralta, Wily MIL 5 Miller Park JE 414 101.9 31.7 91.8 120 0 0 2 412 21
05/06/15 Video View Pederson, Joc LAD Peralta, Wily MIL 8 Miller Park PL 416 102.4 31.8 91.5 122 0 0 2 414 21
05/07/15 Video View Guerrero, Alex LAD Fiers, Mike MIL 2 Miller Park PL 419 104.6 32.1 104.7 118 3 3 2 411 30
04/10/15 Video View Marte, Starling PIT Cotts, Neal MIL 8 Miller Park ND 431 107.5 30.2 104.0 116 0 -1 2 430 30
04/12/15 Video View Gomez, Carlos MIL Sadler, Casey PIT 3 Miller Park PL 420 106.8 28.2 108.5 95 0 0 2 418 30
04/21/15 Video View Bruce, Jay CIN Fiers, Mike MIL 3 Miller Park PL 416 104.4 29.0 76.7 102 0 -1 2 415 29
04/21/15 Video View Frazier, Todd CIN Fiers, Mike MIL 4 Miller Park ND 426 106.5 29.5 104.2 109 0 -2 2 425 30
04/23/15 Video View Byrd, Marlon CIN Lohse, Kyle MIL 5 Miller Park PL 407 101.5 32.4 83.9 122 0 0 2 406 19
05/08/15 Video View Soler, Jorge CHC Nelson, Jimmy MIL 4 Miller Park PL 416 102.0 30.5 84.8 112 0 1 1 413 23
05/08/15 Video View Davis, Khris MIL Hammel, Jason CHC 6 Miller Park PL 416 103.0 26.8 97.0 90 0 1 1 414 26
05/08/15 Video View Castro, Starlin CHC Kintzler, Brandon MIL 9 Miller Park PL 416 106.9 25.5 106.2 80 0 1 1 414 30
05/08/15 Video View Braun, Ryan MIL Rondon, Hector CHC 9 Miller Park PL 363 98.1 32.6 58.5 91 0 1 1 361 29
05/09/15 Video View Segura, Jean MIL Wood, Travis CHC 4 Miller Park PL 396 104.4 23.6 103.0 68 0 0 1 395 25
05/09/15 Video View Rogers, Jason MIL Coke, Phil CHC 5 Miller Park JE 399 103.9 22.6 97.8 67 0 0 1 398 8
05/10/15 Video View Montero, Miguel CHC Garza, Matt MIL 6 Miller Park PL 394 100.2 27.3 101.1 85 0 0 1 393 18
05/10/15 Video View Maldonado, Martin MIL Rosscup, Zac CHC 7 Miller Park PL 395 105.8 27.3 118.3 78 0 -1 1 394 30
05/11/15 Video View Gomez, Carlos MIL Samardzija, Jeff CHW 1 Miller Park PL 421 103.5 27.4 96.4 96 0 0 1 420 28
05/12/15 Video View Herrera, Elian MIL Sale, Chris CHW 5 Miller Park JE 385 98.8 25.9 98.3 77 0 -1 1 385 2
05/08/15 Video View Fowler, Dexter CHC Nelson, Jimmy MIL 1 Miller Park PL 414 102.6 28.1 81.6 96 0 1 1 413 27
05/05/15 Video View Turner, Justin LAD Garza, Matt MIL 6 Miller Park JE 411 101.2 31.1 89.1 115 0 -1 1 410 22
05/05/15 Video View Gonzalez, Adrian LAD Cotts, Neal MIL 7 Miller Park ND 453 108.9 25.8 88.8 100 0 -1 1 452 30
05/06/15 Video View Gennett, Scooter MIL Wieland, Joe LAD 1 Miller Park PL 410 103.4 25.1 81.9 80 0 0 1 409 25
04/06/15 Video View Dickerson, Corey COL Lohse, Kyle MIL 1 Miller Park PL 369 98.3 28.1 68.9 77 0 0 1 368 18
04/06/15 Video View Arenado, Nolan COL Lohse, Kyle MIL 3 Miller Park PL 397 101.0 30.2 104.9 100 0 0 1 395 30
04/08/15 Video View Gonzalez, Carlos COL Broxton, Jonathan MIL 8 Miller Park ND 461 112.5 22.6 86.7 85 0 0 1 461 30
04/08/15 Video View Lind, Adam MIL Butler, Eddie COL 3 Miller Park PL 421 103.5 25.9 91.3 90 0 0 1 420 25
04/08/15 Video View Rosario, Wilin COL Rodriguez, Francisco MIL 10 Miller Park PL 415 103.1 25.6 84.8 85 0 0 1 414 22
04/10/15 Video View Alvarez, Pedro PIT Fiers, Mike MIL 4 Miller Park PL 431 107.5 22.5 91.7 76 0 0 1 431 25
04/11/15 Video View Segura, Jean MIL Worley, Vance PIT 4 Miller Park ND 424 108.9 26.0 108.2 85 0 0 1 424 30
04/12/15 Video View McCutchen, Andrew PIT Lohse, Kyle MIL 6 Miller Park JE 390 102.7 23.3 79.4 66 0 0 1 389 9
04/12/15 Video View Walker, Neil PIT Thornburg, Tyler MIL 9 Miller Park JE 363 95.7 30.9 70.6 89 0 0 1 362 12
04/20/15 Video View Cozart, Zack CIN Peralta, Wily MIL 6 Miller Park PL 389 103.3 30.5 119.2 92 0 0 1 388 30
04/20/15 Video View Votto, Joey CIN Peralta, Wily MIL 7 Miller Park PL 406 103.4 26.3 103.0 83 0 0 1 405 30
04/21/15 Video View Herrera, Elian MIL Badenhop, Burke CIN 6 Miller Park PL 368 101.0 28.9 57.1 76 0 -1 1 368 30
04/23/15 Video View Ramirez, Aramis MIL Bailey, Homer CIN 5 Miller Park PL 399 105.3 24.8 107.3 72 0 0 1 398 30
04/24/15 Video View Heyward, Jason STL Garza, Matt MIL 3 Miller Park JE 389 100.2 26.2 101.7 78 0 -1 1 388 14
05/09/15 Video View Parra, Gerardo MIL Wood, Travis CHC 2 Miller Park JE 419 104.4 23.7 91.1 78 0 0 0 419 21
05/11/15 Video View Soto, Geovany CHW Peralta, Wily MIL 5 Miller Park PL 413 105.9 22.9 98.1 71 0 0 0 412 24
05/13/15 Video View Garcia, Avisail CHW Nelson, Jimmy MIL 1 Miller Park PL 429 109.4 20.8 87.0 69 0 -1 0 429 25
05/13/15 Video View LaRoche, Adam CHW Nelson, Jimmy MIL 1 Miller Park PL 423 106.0 23.3 86.5 79 0 -1 0 424 24
04/25/15 Video View Holliday, Matt STL Jeffress, Jeremy MIL 7 Miller Park PL 406 105.0 22.6 82.5 68 0 0 0 406 16
05/04/15 Video View Pederson, Joc LAD Lohse, Kyle MIL 1 Miller Park JE 380 102.9 24.5 71.2 66 0 0 0 380 21
05/05/15 Video View Rollins, Jimmy LAD Cotts, Neal MIL 7 Miller Park JE 388 105.0 24.6 111.2 67 0 1 0 388 30
05/07/15 Video View Lind, Adam MIL Frias, Carlos LAD 4 Miller Park ND 411 104.7 30.4 70.2 103 0 0 0 411 0
05/07/15 Video View Grandal, Yasmani LAD Wooten, Rob MIL 8 Miller Park JE 403 109.9 26.0 56.3 72 0 0 0 403 0
05/07/15 Video View Grandal, Yasmani LAD Broxton, Jonathan MIL 9 Miller Park JE 378 97.3 29.0 104.2 85 0 0 0 378 0
04/08/15 Video View Dickerson, Corey COL Peralta, Wily MIL 7 Miller Park PL 408 109.6 19.8 82.4 57 0 0 0 408 16
04/20/15 Video View Braun, Ryan MIL Badenhop, Burke CIN 9 Miller Park PL 430 107.9 22.0 87.5 74 0 0 0 430 26
04/21/15 Video View Maldonado, Martin MIL Marquis, Jason CIN 3 Miller Park JE 389 107.5 21.3 104.6 57 0 0 0 389 16
04/21/15 Video View Cozart, Zack CIN Thornburg, Tyler MIL 5 Miller Park PL 387 101.9 27.5 110.4 80 0 0 0 387 0
04/21/15 Video View Votto, Joey CIN Thornburg, Tyler MIL 6 Miller Park PL 425 110.2 20.3 84.8 64 0 0 0 425 0
04/21/15 Video View Cozart, Zack CIN Cotts, Neal MIL 7 Miller Park JE 380 100.1 28.2 109.8 82 0 0 0 380 0
04/23/15 Video View Lind, Adam MIL Bailey, Homer CIN 2 Miller Park JE 391 102.7 22.9 98.7 66 0 0 0 391 4


About HitTracker | Contact Us
© 2006-2015 HitTrackerOnline